createdAt,value
2018-02-04T00:00:38.482Z,85.10
2018-02-04T00:03:05.462Z,85.10
2018-02-04T00:05:32.436Z,85.10
2018-02-04T00:07:59.415Z,85.10
2018-02-04T00:10:27.159Z,85.30
2018-02-04T00:12:54.134Z,85.30
2018-02-04T00:15:21.969Z,85.30
2018-02-04T00:17:48.951Z,85.30
2018-02-04T00:20:15.910Z,85.10
2018-02-04T00:22:42.906Z,85.00
2018-02-04T00:25:10.719Z,85.00
2018-02-04T00:27:37.703Z,85.00
2018-02-04T00:30:04.662Z,84.70
2018-02-04T00:32:31.630Z,84.80
2018-02-04T00:34:58.650Z,84.90
2018-02-04T00:37:25.617Z,85.00
2018-02-04T00:39:52.598Z,85.00
2018-02-04T00:42:19.563Z,85.00
2018-02-04T00:44:46.538Z,85.10
2018-02-04T00:47:14.279Z,85.10
2018-02-04T00:49:41.258Z,85.10
2018-02-04T00:52:08.402Z,85.00
2018-02-04T00:54:35.434Z,85.00
2018-02-04T00:57:03.262Z,85.10
2018-02-04T00:59:30.238Z,84.70
2018-02-04T01:01:58.054Z,84.90
2018-02-04T01:04:25.114Z,84.90
2018-02-04T01:06:52.078Z,84.80
2018-02-04T01:09:19.059Z,85.00
2018-02-04T01:11:47.626Z,84.60
2018-02-04T01:14:14.607Z,84.50
2018-02-04T01:16:41.650Z,84.40
2018-02-04T01:19:08.749Z,84.30
2018-02-04T01:21:35.675Z,84.20
2018-02-04T01:24:02.659Z,84.20
2018-02-04T01:26:29.683Z,84.20
2018-02-04T01:28:56.744Z,84.30
2018-02-04T01:31:23.715Z,84.50
2018-02-04T01:33:50.700Z,84.20
2018-02-04T01:36:17.667Z,84.20
2018-02-04T01:38:45.494Z,84.40
2018-02-04T01:41:12.462Z,84.30
2018-02-04T01:43:39.515Z,84.40
2018-02-04T01:46:06.566Z,84.40
2018-02-04T01:48:33.551Z,84.30
2018-02-04T01:51:00.586Z,84.40
2018-02-04T01:53:27.650Z,84.50
2018-02-04T01:55:54.618Z,84.50
2018-02-04T01:58:21.667Z,84.70
2018-02-04T02:00:48.634Z,84.70
2018-02-04T02:03:15.615Z,84.80
2018-02-04T02:05:42.578Z,84.90
2018-02-04T02:08:09.547Z,84.90
2018-02-04T02:10:37.296Z,85.00
2018-02-04T02:13:04.330Z,85.00
2018-02-04T02:15:31.419Z,85.10
2018-02-04T02:17:58.459Z,85.20
2018-02-04T02:20:25.446Z,85.40
2018-02-04T02:22:52.429Z,85.20
2018-02-04T02:25:20.250Z,85.40
2018-02-04T02:27:47.310Z,85.40
2018-02-04T02:30:14.291Z,85.50
2018-02-04T02:32:41.258Z,85.40
2018-02-04T02:35:09.196Z,85.40
2018-02-04T02:37:36.907Z,85.60
2018-02-04T02:40:03.886Z,85.60
2018-02-04T02:42:30.904Z,85.90
2018-02-04T02:44:57.874Z,85.90
2018-02-04T02:47:24.923Z,86.60
2018-02-04T02:49:51.979Z,86.00
2018-02-04T02:52:19.043Z,86.10
2018-02-04T02:54:46.019Z,86.20
2018-02-04T02:57:12.991Z,86.30
2018-02-04T02:59:40.065Z,86.30
2018-02-04T03:02:06.995Z,86.40
2018-02-04T03:04:34.039Z,86.40
2018-02-04T03:07:01.094Z,86.40
2018-02-04T03:09:28.070Z,86.50
2018-02-04T03:11:55.039Z,86.60
2018-02-04T03:14:22.016Z,86.60
2018-02-04T03:16:48.988Z,86.60
2018-02-04T03:19:16.730Z,86.80
2018-02-04T03:21:43.704Z,86.80
2018-02-04T03:24:10.718Z,86.90
2018-02-04T03:26:37.784Z,86.90
2018-02-04T03:29:04.762Z,87.00
2018-02-04T03:31:31.731Z,87.00
2018-02-04T03:33:58.759Z,87.10
2018-02-04T03:36:25.826Z,87.00
2018-02-04T03:38:52.874Z,87.00
2018-02-04T03:41:19.842Z,87.10
2018-02-04T03:43:46.900Z,87.20
2018-02-04T03:46:13.950Z,87.00
2018-02-04T03:48:40.931Z,86.90
2018-02-04T03:51:07.899Z,87.00
2018-02-04T03:53:34.886Z,87.10
2018-02-04T03:56:02.623Z,87.00
2018-02-04T03:58:29.646Z,87.00
2018-02-04T04:00:57.362Z,86.90
2018-02-04T04:03:24.335Z,86.80
2018-02-04T04:05:51.364Z,86.60
2018-02-04T04:08:18.343Z,86.50
2018-02-04T04:10:45.318Z,86.20
2018-02-04T04:13:13.866Z,85.70
2018-02-04T04:15:40.935Z,85.70
2018-02-04T04:18:07.902Z,85.70
2018-02-04T04:20:34.947Z,85.80
2018-02-04T04:23:01.916Z,85.70
2018-02-04T04:25:28.895Z,85.70
2018-02-04T04:27:55.974Z,85.70
2018-02-04T04:30:22.986Z,85.90
2018-02-04T04:32:49.954Z,85.90
2018-02-04T04:35:16.932Z,85.80
2018-02-04T04:37:43.898Z,85.80
2018-02-04T04:40:10.875Z,85.80
2018-02-04T04:42:38.699Z,85.80
2018-02-04T04:45:05.675Z,85.80
2018-02-04T04:47:32.643Z,85.90
2018-02-04T04:49:59.667Z,85.80
2018-02-04T04:52:26.729Z,86.10
2018-02-04T04:54:53.792Z,86.30
2018-02-04T04:57:20.759Z,86.30
2018-02-04T04:59:47.739Z,86.30
2018-02-04T05:02:14.771Z,86.40
2018-02-04T05:04:41.831Z,86.40
2018-02-04T05:07:08.798Z,86.50
2018-02-04T05:09:35.781Z,86.60
2018-02-04T05:12:02.746Z,86.70
2018-02-04T05:14:29.762Z,86.70
2018-02-04T05:16:56.821Z,86.70
2018-02-04T05:19:23.798Z,86.90
2018-02-04T05:21:50.771Z,86.90
2018-02-04T05:24:17.751Z,86.90
2018-02-04T05:26:45.487Z,86.90
2018-02-04T05:29:12.535Z,86.80
2018-02-04T05:31:39.502Z,87.00
2018-02-04T05:34:06.482Z,87.00
2018-02-04T05:36:33.502Z,86.90
2018-02-04T05:39:00.567Z,86.90
2018-02-04T05:41:27.631Z,87.10
2018-02-04T05:43:54.603Z,87.00
2018-02-04T05:46:21.578Z,87.20
2018-02-04T05:48:49.315Z,87.30
2018-02-04T05:51:16.291Z,87.30
2018-02-04T05:53:43.263Z,87.10
2018-02-04T05:56:10.297Z,87.00
2018-02-04T05:58:37.270Z,86.90
2018-02-04T06:01:04.250Z,87.00
2018-02-04T06:03:31.214Z,87.10
2018-02-04T06:05:58.190Z,87.00
2018-02-04T06:08:26.002Z,87.10
2018-02-04T06:10:52.982Z,87.00
2018-02-04T06:13:20.022Z,87.10
2018-02-04T06:15:47.089Z,87.20
2018-02-04T06:18:14.058Z,87.30
2018-02-04T06:20:41.038Z,87.40
2018-02-04T06:23:08.537Z,87.40
2018-02-04T06:25:36.287Z,87.40
2018-02-04T06:28:03.259Z,87.40
2018-02-04T06:30:31.003Z,87.70
2018-02-04T06:32:57.970Z,87.60
2018-02-04T06:35:25.000Z,87.60
2018-02-04T06:37:51.970Z,87.60
2018-02-04T06:40:18.942Z,87.60
2018-02-04T06:42:46.005Z,87.60
2018-02-04T06:45:13.115Z,87.60
2018-02-04T06:47:40.083Z,87.70
2018-02-04T06:50:07.160Z,87.90
2018-02-04T06:52:34.215Z,88.00
2018-02-04T06:55:01.196Z,87.70
2018-02-04T06:57:28.166Z,87.80
2018-02-04T06:59:55.199Z,87.80
2018-02-04T07:02:22.171Z,88.00
2018-02-04T07:04:49.144Z,88.00
2018-02-04T07:07:16.166Z,88.20
2018-02-04T07:09:43.234Z,88.20
2018-02-04T07:12:10.303Z,88.00
2018-02-04T07:14:37.271Z,88.00
2018-02-04T07:17:04.268Z,87.90
2018-02-04T07:19:32.002Z,87.90
2018-02-04T07:21:58.978Z,87.90
2018-02-04T07:24:25.950Z,87.80
2018-02-04T07:26:53.682Z,88.00
2018-02-04T07:29:20.658Z,87.90
2018-02-04T07:31:47.634Z,87.70
2018-02-04T07:34:14.602Z,87.50
2018-02-04T07:36:42.435Z,85.60
2018-02-04T07:39:09.538Z,85.60
2018-02-04T07:41:36.542Z,85.60
2018-02-04T07:44:03.611Z,85.40
2018-02-04T07:46:30.667Z,85.60
2018-02-04T07:48:57.634Z,85.40
2018-02-04T07:51:24.619Z,85.50
2018-02-04T07:53:52.367Z,85.70
2018-02-04T07:56:19.420Z,85.70
2018-02-04T07:58:46.479Z,85.50
2018-02-04T08:01:13.456Z,85.50
2018-02-04T08:03:40.504Z,84.90
2018-02-04T08:06:07.559Z,84.80
2018-02-04T08:08:34.526Z,84.80
2018-02-04T08:11:01.507Z,84.90
2018-02-04T08:13:28.534Z,85.10
2018-02-04T08:15:55.511Z,84.90
2018-02-04T08:18:22.479Z,84.80
2018-02-04T08:20:49.842Z,84.90
2018-02-04T08:23:16.882Z,85.10
2018-02-04T08:25:43.935Z,85.20
2018-02-04T08:28:10.915Z,85.20
2018-02-04T08:30:37.958Z,85.20
2018-02-04T08:33:05.023Z,85.50
2018-02-04T08:35:31.998Z,85.30
2018-02-04T08:37:58.971Z,85.20
2018-02-04T08:40:25.995Z,85.30
2018-02-04T08:42:52.958Z,85.30
2018-02-04T08:45:19.944Z,85.20
2018-02-04T08:47:46.907Z,85.20
2018-02-04T08:50:13.928Z,85.10
2018-02-04T08:52:40.894Z,85.00
2018-02-04T08:55:07.946Z,84.80
2018-02-04T08:57:35.001Z,84.60
2018-02-04T09:00:02.062Z,84.40
2018-02-04T09:02:29.031Z,84.60
2018-02-04T09:04:56.006Z,84.70
2018-02-04T09:07:23.042Z,84.20
2018-02-04T09:09:50.020Z,83.80
2018-02-04T09:12:17.059Z,83.90
2018-02-04T09:14:44.031Z,83.80
2018-02-04T09:17:11.074Z,83.50
2018-02-04T09:19:38.046Z,83.70
2018-02-04T09:22:05.090Z,83.80
2018-02-04T09:24:32.159Z,83.50
2018-02-04T09:26:59.214Z,83.30
2018-02-04T09:29:26.179Z,82.80
2018-02-04T09:31:53.235Z,82.20
2018-02-04T09:34:20.289Z,81.50
2018-02-04T09:36:47.359Z,80.90
2018-02-04T09:39:14.336Z,81.40
2018-02-04T09:41:41.379Z,81.40
2018-02-04T09:44:08.439Z,81.40
2018-02-04T09:46:35.419Z,81.30
2018-02-04T09:49:02.390Z,81.00
2018-02-04T09:51:29.371Z,81.50
2018-02-04T09:53:57.186Z,81.60
2018-02-04T09:56:24.166Z,81.60
2018-02-04T09:58:51.211Z,81.70
2018-02-04T10:01:18.267Z,81.60
2018-02-04T10:03:45.234Z,81.90
2018-02-04T10:06:12.214Z,82.20
2018-02-04T10:08:39.186Z,82.20
2018-02-04T10:11:06.198Z,82.50
2018-02-04T10:13:33.165Z,82.10
2018-02-04T10:16:00.212Z,82.20
2018-02-04T10:18:27.462Z,81.80
2018-02-04T10:20:55.183Z,82.50
2018-02-04T10:23:22.154Z,81.70
2018-02-04T10:25:49.131Z,81.70
2018-02-04T10:28:16.948Z,81.80
2018-02-04T10:30:44.042Z,81.80
2018-02-04T10:33:11.075Z,81.30
2018-02-04T10:35:38.130Z,81.80
2018-02-04T10:38:05.098Z,81.70
2018-02-04T10:40:32.146Z,81.80
2018-02-04T10:42:59.115Z,82.10
2018-02-04T10:45:26.091Z,82.20
2018-02-04T10:47:53.123Z,82.30
2018-02-04T10:50:20.094Z,82.10
2018-02-04T10:52:47.082Z,82.20
2018-02-04T10:55:14.061Z,82.50
2018-02-04T10:57:41.883Z,82.60
2018-02-04T11:00:08.854Z,82.60
2018-02-04T11:02:35.895Z,82.80
2018-02-04T11:05:02.878Z,82.70
2018-02-04T11:07:29.914Z,82.50
2018-02-04T11:09:56.882Z,82.70
2018-02-04T11:12:23.858Z,82.60
2018-02-04T11:14:50.891Z,82.40
2018-02-04T11:17:17.946Z,82.60
2018-02-04T11:19:45.011Z,82.20
2018-02-04T11:22:12.071Z,82.10
2018-02-04T11:24:39.043Z,82.20
2018-02-04T11:27:06.018Z,82.10
2018-02-04T11:29:33.047Z,81.70
2018-02-04T11:32:00.028Z,81.80
2018-02-04T11:34:26.994Z,81.10
2018-02-04T11:36:53.967Z,81.10
2018-02-04T11:39:21.799Z,80.50
2018-02-04T11:41:48.774Z,80.50
2018-02-04T11:44:15.740Z,80.80
2018-02-04T11:46:42.831Z,81.50
2018-02-04T11:49:09.742Z,81.10
2018-02-04T11:51:36.726Z,80.90
2018-02-04T11:54:03.693Z,81.00
2018-02-04T11:56:30.663Z,81.20
2018-02-04T11:58:58.398Z,80.70
2018-02-04T12:01:26.362Z,80.70
2018-02-04T12:03:53.331Z,79.80
2018-02-04T12:06:20.310Z,79.90
2018-02-04T12:08:47.280Z,80.00
2018-02-04T12:11:14.255Z,80.30
2018-02-04T12:13:42.078Z,80.00
2018-02-04T12:16:09.136Z,80.10
2018-02-04T12:18:36.108Z,79.80
2018-02-04T12:21:03.082Z,79.20
2018-02-04T12:23:30.107Z,79.40
2018-02-04T12:25:57.083Z,80.30
2018-02-04T12:28:24.055Z,79.70
2018-02-04T12:30:51.799Z,79.20
2018-02-04T12:33:18.858Z,79.20
2018-02-04T12:35:45.928Z,79.00
2018-02-04T12:38:12.899Z,78.90
2018-02-04T12:40:39.874Z,79.70
2018-02-04T12:43:06.901Z,79.60
2018-02-04T12:45:33.871Z,79.20
2018-02-04T12:48:00.854Z,79.20
2018-02-04T12:50:27.819Z,79.10
2018-02-04T12:52:54.794Z,79.10
2018-02-04T12:55:22.616Z,79.00
2018-02-04T12:57:49.673Z,78.90
2018-02-04T13:00:16.644Z,79.00
2018-02-04T13:02:43.693Z,79.00
2018-02-04T13:05:10.747Z,78.90
2018-02-04T13:07:37.728Z,78.20
2018-02-04T13:10:04.699Z,78.60
2018-02-04T13:12:31.723Z,79.00
2018-02-04T13:14:58.690Z,78.70
2018-02-04T13:17:25.742Z,78.70
2018-02-04T13:19:52.814Z,78.70
2018-02-04T13:22:19.863Z,77.60
2018-02-04T13:24:46.923Z,78.30
2018-02-04T13:27:13.901Z,77.50
2018-02-04T13:29:40.938Z,76.60
2018-02-04T13:32:07.914Z,76.90
2018-02-04T13:34:34.887Z,77.00
2018-02-04T13:37:01.916Z,77.40
2018-02-04T13:39:28.978Z,76.10
2018-02-04T13:41:55.950Z,76.10
2018-02-04T13:44:23.755Z,75.30
2018-02-04T13:46:50.735Z,75.10
2018-02-04T13:49:18.555Z,75.00
2018-02-04T13:51:45.526Z,75.00
2018-02-04T13:54:12.498Z,74.50
2018-02-04T13:56:39.793Z,73.90
2018-02-04T13:59:07.607Z,73.70
2018-02-04T14:01:34.682Z,73.70
2018-02-04T14:04:01.731Z,76.10
2018-02-04T14:06:28.707Z,76.40
2018-02-04T14:08:55.747Z,75.30
2018-02-04T14:11:22.718Z,75.40
2018-02-04T14:13:49.690Z,76.10
2018-02-04T14:16:17.439Z,76.20
2018-02-04T14:18:44.410Z,76.10
2018-02-04T14:21:11.382Z,76.30
2018-02-04T14:23:38.354Z,75.80
2018-02-04T14:26:05.408Z,77.10
2018-02-04T14:28:32.427Z,77.60
2018-02-04T14:30:59.667Z,77.80
2018-02-04T14:33:26.643Z,76.60
2018-02-04T14:35:53.723Z,76.70
2018-02-04T14:38:20.774Z,77.30
2018-02-04T14:40:47.747Z,78.10
2018-02-04T14:43:15.063Z,78.50
2018-02-04T14:45:42.806Z,76.90
2018-02-04T14:48:09.791Z,76.90
2018-02-04T14:50:37.527Z,76.60
2018-02-04T14:53:04.559Z,76.60
2018-02-04T14:55:31.515Z,77.70
2018-02-04T14:57:58.598Z,78.10
2018-02-04T15:00:25.562Z,78.30
2018-02-04T15:02:52.603Z,78.80
2018-02-04T15:05:19.571Z,78.20
2018-02-04T15:07:46.551Z,78.50
2018-02-04T15:10:13.583Z,78.10
2018-02-04T15:12:40.559Z,78.00
2018-02-04T15:15:07.526Z,77.90
2018-02-04T15:17:34.505Z,78.80
2018-02-04T15:20:02.238Z,79.60
2018-02-04T15:22:29.216Z,78.90
2018-02-04T15:24:56.182Z,78.10
2018-02-04T15:27:23.210Z,78.90
2018-02-04T15:29:50.184Z,78.90
2018-02-04T15:32:17.154Z,79.20
2018-02-04T15:34:44.187Z,78.80
2018-02-04T15:37:11.167Z,79.20
2018-02-04T15:39:38.140Z,79.50
2018-02-04T15:42:05.162Z,79.10
2018-02-04T15:44:32.215Z,79.40
2018-02-04T15:46:59.194Z,79.40
2018-02-04T15:49:26.170Z,79.70
2018-02-04T15:51:53.194Z,79.60
2018-02-04T15:54:20.259Z,79.70
2018-02-04T15:56:47.235Z,79.50
2018-02-04T15:59:14.275Z,79.50
2018-02-04T16:01:41.334Z,79.60
2018-02-04T16:04:08.379Z,80.40
2018-02-04T16:06:35.450Z,80.40
2018-02-04T16:09:02.423Z,80.00
2018-02-04T16:11:30.013Z,80.30
2018-02-04T16:13:56.979Z,80.40
2018-02-04T16:16:24.003Z,80.60
2018-02-04T16:18:50.980Z,80.80
2018-02-04T16:21:18.023Z,81.20
2018-02-04T16:23:44.999Z,80.80
2018-02-04T16:26:12.051Z,80.40
2018-02-04T16:28:39.103Z,80.70
2018-02-04T16:31:06.158Z,79.90
2018-02-04T16:33:33.223Z,79.80
2018-02-04T16:36:00.260Z,80.50
2018-02-04T16:38:27.979Z,80.50
2018-02-04T16:40:54.943Z,80.50
2018-02-04T16:43:21.922Z,80.50
2018-02-04T16:45:49.658Z,80.20
2018-02-04T16:48:17.259Z,80.20
2018-02-04T16:50:44.235Z,80.10
2018-02-04T16:53:11.971Z,80.50
2018-02-04T16:55:39.014Z,80.50
2018-02-04T16:58:05.995Z,80.50
2018-02-04T17:00:32.962Z,80.50
2018-02-04T17:02:59.998Z,80.40
2018-02-04T17:05:26.979Z,79.50
2018-02-04T17:07:53.951Z,80.00
2018-02-04T17:10:20.914Z,80.20
2018-02-04T17:12:48.738Z,80.10
2018-02-04T17:15:15.798Z,80.10
2018-02-04T17:17:42.794Z,80.00
2018-02-04T17:20:09.760Z,80.30
2018-02-04T17:22:37.738Z,80.60
2018-02-04T17:25:04.736Z,80.90
2018-02-04T17:27:32.539Z,80.40
2018-02-04T17:29:59.599Z,80.20
2018-02-04T17:32:26.586Z,80.60
2018-02-04T17:34:53.623Z,80.60
2018-02-04T17:37:20.590Z,80.80
2018-02-04T17:39:47.563Z,81.10
2018-02-04T17:42:14.599Z,81.60
2018-02-04T17:44:41.562Z,81.70
2018-02-04T17:47:08.543Z,81.60
2018-02-04T17:49:35.515Z,81.60
2018-02-04T17:52:03.254Z,81.60
2018-02-04T17:54:30.308Z,81.50
2018-02-04T17:56:57.291Z,81.70
2018-02-04T17:59:24.252Z,81.60
2018-02-04T18:01:51.283Z,81.50
2018-02-04T18:04:18.251Z,81.60
2018-02-04T18:06:45.264Z,81.30
2018-02-04T18:09:13.019Z,80.90
2018-02-04T18:11:39.992Z,80.90
2018-02-04T18:14:07.735Z,81.00
2018-02-04T18:16:35.547Z,81.00
2018-02-04T18:19:03.287Z,81.00
2018-02-04T18:21:30.293Z,80.90
2018-02-04T18:23:57.270Z,80.80
2018-02-04T18:26:24.300Z,81.10
2018-02-04T18:28:52.047Z,81.10
2018-02-04T18:31:20.523Z,81.00
2018-02-04T18:33:47.518Z,81.00
2018-02-04T18:36:15.350Z,81.00
2018-02-04T18:38:42.314Z,81.00
2018-02-04T18:41:09.387Z,80.90
2018-02-04T18:43:36.423Z,80.70
2018-02-04T18:46:03.430Z,80.40
2018-02-04T18:48:30.434Z,80.40
2018-02-04T18:50:57.438Z,80.20
2018-02-04T18:53:24.402Z,79.90
2018-02-04T18:55:52.275Z,80.60
2018-02-04T18:58:19.299Z,79.80
2018-02-04T19:00:46.283Z,80.00
2018-02-04T19:03:13.780Z,80.30
2018-02-04T19:05:41.517Z,79.90
2018-02-04T19:08:08.495Z,79.80
2018-02-04T19:10:35.565Z,79.50
2018-02-04T19:13:02.516Z,80.50
2018-02-04T19:15:29.530Z,80.10
2018-02-04T19:17:56.532Z,79.60
2018-02-04T19:20:23.539Z,79.30
2018-02-04T19:22:50.627Z,79.60
2018-02-04T19:25:17.594Z,79.70
2018-02-04T19:27:44.575Z,79.80
2018-02-04T19:30:11.543Z,79.60
2018-02-04T19:32:39.375Z,79.60
2018-02-04T19:35:06.347Z,79.50
2018-02-04T19:37:33.390Z,79.50
2018-02-04T19:40:00.359Z,79.30
2018-02-04T19:42:27.338Z,79.50
2018-02-04T19:44:54.362Z,79.40
2018-02-04T19:47:21.342Z,79.20
2018-02-04T19:49:48.318Z,78.80
2018-02-04T19:52:15.292Z,78.80
2018-02-04T19:54:43.027Z,79.60
2018-02-04T19:57:09.994Z,78.80
2018-02-04T19:59:36.993Z,78.90
2018-02-04T20:02:03.982Z,78.80
2018-02-04T20:04:31.046Z,78.30
2018-02-04T20:06:58.115Z,79.10
2018-02-04T20:09:25.090Z,79.10
2018-02-04T20:11:52.054Z,79.10
2018-02-04T20:14:19.114Z,79.40
2018-02-04T20:16:46.966Z,78.70
2018-02-04T20:19:14.026Z,78.60
2018-02-04T20:21:41.016Z,78.70
2018-02-04T20:24:07.982Z,79.10
2018-02-04T20:26:34.959Z,78.80
2018-02-04T20:29:02.694Z,79.10
2018-02-04T20:31:29.667Z,79.10
2018-02-04T20:34:02.426Z,79.20
2018-02-04T20:36:29.496Z,79.00
2018-02-04T20:38:56.548Z,79.10
2018-02-04T20:41:23.510Z,79.20
2018-02-04T20:43:50.556Z,79.40
2018-02-04T20:46:17.882Z,79.20
2018-02-04T20:48:45.627Z,79.10
2018-02-04T20:51:12.599Z,79.10
2018-02-04T20:53:39.570Z,79.60
2018-02-04T20:56:07.407Z,78.80
2018-02-04T20:58:34.485Z,79.30
2018-02-04T21:01:01.435Z,79.20
2018-02-04T21:03:28.416Z,79.40
2018-02-04T21:05:55.374Z,79.00
2018-02-04T21:08:22.394Z,79.00
2018-02-04T21:10:49.459Z,79.30
2018-02-04T21:13:16.442Z,79.30
2018-02-04T21:15:43.419Z,79.30
2018-02-04T21:18:10.399Z,78.80
2018-02-04T21:20:38.130Z,78.70
2018-02-04T21:23:05.110Z,78.70
2018-02-04T21:25:32.083Z,78.90
2018-02-04T21:27:59.902Z,78.80
2018-02-04T21:30:26.895Z,78.70
2018-02-04T21:32:53.930Z,78.90
2018-02-04T21:35:20.902Z,78.70
2018-02-04T21:37:47.943Z,78.70
2018-02-04T21:40:14.914Z,78.90
2018-02-04T21:42:41.887Z,79.00
2018-02-04T21:45:09.127Z,78.80
2018-02-04T21:47:36.175Z,79.00
2018-02-04T21:50:03.155Z,78.80
2018-02-04T21:52:30.194Z,79.10
2018-02-04T21:54:57.258Z,79.30
2018-02-04T21:57:24.226Z,79.20
2018-02-04T21:59:51.203Z,79.00
2018-02-04T22:02:18.195Z,78.90
2018-02-04T22:04:45.939Z,79.00
2018-02-04T22:07:12.971Z,79.00
2018-02-04T22:09:40.030Z,79.00
2018-02-04T22:12:06.998Z,79.10
2018-02-04T22:14:34.047Z,79.00
2018-02-04T22:17:01.014Z,79.10
2018-02-04T22:19:27.985Z,79.10
2018-02-04T22:21:55.018Z,78.90
2018-02-04T22:24:22.078Z,79.20
2018-02-04T22:26:49.046Z,79.40
2018-02-04T22:29:16.023Z,79.40
2018-02-04T22:31:43.002Z,79.40
2018-02-04T22:34:09.978Z,79.00
2018-02-04T22:36:37.718Z,79.20
2018-02-04T22:39:04.694Z,79.20
2018-02-04T22:41:31.710Z,78.90
2018-02-04T22:43:58.772Z,79.10
2018-02-04T22:46:25.847Z,79.00
2018-02-04T22:48:52.900Z,79.10
2018-02-04T22:51:19.867Z,78.80
2018-02-04T22:53:46.839Z,78.80
2018-02-04T22:56:13.810Z,78.80
2018-02-04T22:58:40.867Z,78.50
2018-02-04T23:01:07.878Z,78.20
2018-02-04T23:03:34.859Z,78.50
2018-02-04T23:06:01.904Z,78.50
2018-02-04T23:08:28.884Z,78.60
2018-02-04T23:10:55.854Z,78.20
2018-02-04T23:13:22.835Z,77.80
2018-02-04T23:15:50.574Z,77.60
2018-02-04T23:18:17.554Z,77.60
2018-02-04T23:20:44.543Z,77.50
2018-02-04T23:23:12.271Z,77.60
2018-02-04T23:25:39.251Z,77.60
2018-02-04T23:28:06.217Z,77.50
2018-02-04T23:30:33.954Z,77.60
2018-02-04T23:33:01.003Z,77.50
2018-02-04T23:35:28.066Z,77.30
2018-02-04T23:37:55.118Z,77.10
2018-02-04T23:40:22.099Z,77.00
2018-02-04T23:42:49.067Z,77.40
2018-02-04T23:45:16.095Z,77.30
2018-02-04T23:47:43.062Z,77.30
2018-02-04T23:50:10.043Z,77.40
2018-02-04T23:52:37.071Z,77.80
2018-02-04T23:55:04.047Z,77.90
2018-02-04T23:57:31.015Z,78.10
2018-02-04T23:59:57.987Z,77.90
